sensor_id;sensor_type;location;lat;lon;timestamp;P1;durP1;ratioP1;P2;durP2;ratioP2
65665;SDS011;52365;47.464;18.976;2024-01-30T00:00:13;28.60;;;15.77;;
65665;SDS011;52365;47.464;18.976;2024-01-30T00:00:34;26.90;;;15.43;;
65665;SDS011;52365;47.464;18.976;2024-01-30T00:00:55;28.08;;;15.68;;
65665;SDS011;52365;47.464;18.976;2024-01-30T00:01:16;29.55;;;15.73;;
65665;SDS011;52365;47.464;18.976;2024-01-30T00:01:37;29.05;;;16.00;;
65665;SDS011;52365;47.464;18.976;2024-01-30T00:01:58;29.50;;;16.87;;
65665;SDS011;52365;47.464;18.976;2024-01-30T00:02:19;30.42;;;16.02;;
65665;SDS011;52365;47.464;18.976;2024-01-30T00:02:39;29.25;;;15.60;;
65665;SDS011;52365;47.464;18.976;2024-01-30T00:02:55;28.75;;;16.35;;
65665;SDS011;52365;47.464;18.976;2024-01-30T00:03:16;28.85;;;16.17;;
65665;SDS011;52365;47.464;18.976;2024-01-30T00:03:37;27.90;;;15.63;;
65665;SDS011;52365;47.464;18.976;2024-01-30T00:03:58;29.00;;;15.73;;
65665;SDS011;52365;47.464;18.976;2024-01-30T00:04:19;29.92;;;16.25;;
65665;SDS011;52365;47.464;18.976;2024-01-30T00:04:40;30.55;;;16.55;;
65665;SDS011;52365;47.464;18.976;2024-01-30T00:05:01;31.02;;;16.27;;
65665;SDS011;52365;47.464;18.976;2024-01-30T00:05:24;31.02;;;15.80;;
65665;SDS011;52365;47.464;18.976;2024-01-30T00:05:45;30.70;;;16.40;;
65665;SDS011;52365;47.464;18.976;2024-01-30T00:06:06;30.10;;;16.25;;
65665;SDS011;52365;47.464;18.976;2024-01-30T00:06:22;29.50;;;15.57;;
65665;SDS011;52365;47.464;18.976;2024-01-30T00:06:43;28.27;;;15.32;;
65665;SDS011;52365;47.464;18.976;2024-01-30T00:07:05;26.00;;;14.95;;
65665;SDS011;52365;47.464;18.976;2024-01-30T00:07:26;25.50;;;14.43;;
65665;SDS011;52365;47.464;18.976;2024-01-30T00:07:47;27.45;;;15.02;;
65665;SDS011;52365;47.464;18.976;2024-01-30T00:08:08;28.90;;;15.52;;
65665;SDS011;52365;47.464;18.976;2024-01-30T00:08:29;29.25;;;15.63;;
65665;SDS011;52365;47.464;18.976;2024-01-30T00:08:45;26.70;;;15.13;;
65665;SDS011;52365;47.464;18.976;2024-01-30T00:09:09;27.27;;;15.20;;
65665;SDS011;52365;47.464;18.976;2024-01-30T00:09:31;27.58;;;14.93;;
65665;SDS011;52365;47.464;18.976;2024-01-30T00:09:52;28.98;;;15.32;;
65665;SDS011;52365;47.464;18.976;2024-01-30T00:10:13;26.23;;;14.98;;
65665;SDS011;52365;47.464;18.976;2024-01-30T00:10:34;25.40;;;13.95;;
65665;SDS011;52365;47.464;18.976;2024-01-30T00:10:55;27.15;;;14.23;;
65665;SDS011;52365;47.464;18.976;2024-01-30T00:11:16;26.70;;;14.52;;
65665;SDS011;52365;47.464;18.976;2024-01-30T00:11:37;25.70;;;14.50;;
65665;SDS011;52365;47.464;18.976;2024-01-30T00:11:53;25.67;;;14.60;;
65665;SDS011;52365;47.464;18.976;2024-01-30T00:12:14;26.70;;;14.68;;
65665;SDS011;52365;47.464;18.976;2024-01-30T00:12:35;28.70;;;15.77;;
65665;SDS011;52365;47.464;18.976;2024-01-30T00:12:56;29.12;;;16.00;;
65665;SDS011;52365;47.464;18.976;2024-01-30T00:13:16;25.55;;;14.63;;
65665;SDS011;52365;47.464;18.976;2024-01-30T00:13:39;27.20;;;15.05;;
65665;SDS011;52365;47.464;18.976;2024-01-30T00:14:00;24.92;;;14.65;;
65665;SDS011;52365;47.464;18.976;2024-01-30T00:14:21;25.50;;;14.40;;
65665;SDS011;52365;47.464;18.976;2024-01-30T00:14:42;26.40;;;14.60;;
65665;SDS011;52365;47.464;18.976;2024-01-30T00:15:06;26.12;;;14.60;;
65665;SDS011;52365;47.464;18.976;2024-01-30T00:15:25;24.60;;;14.00;;
65665;SDS011;52365;47.464;18.976;2024-01-30T00:15:46;24.00;;;13.97;;
65665;SDS011;52365;47.464;18.976;2024-01-30T00:16:07;25.27;;;13.70;;
65665;SDS011;52365;47.464;18.976;2024-01-30T00:16:29;26.12;;;13.65;;
65665;SDS011;52365;47.464;18.976;2024-01-30T00:16:53;26.52;;;14.23;;
65665;SDS011;52365;47.464;18.976;2024-01-30T00:17:09;26.67;;;14.23;;
65665;SDS011;52365;47.464;18.976;2024-01-30T00:17:30;25.88;;;14.30;;
65665;SDS011;52365;47.464;18.976;2024-01-30T00:17:51;25.40;;;14.43;;
65665;SDS011;52365;47.464;18.976;2024-01-30T00:18:13;24.52;;;14.48;;
65665;SDS011;52365;47.464;18.976;2024-01-30T00:18:34;26.85;;;14.27;;
65665;SDS011;52365;47.464;18.976;2024-01-30T00:18:55;25.92;;;14.30;;
65665;SDS011;52365;47.464;18.976;2024-01-30T00:19:16;24.52;;;14.98;;
65665;SDS011;52365;47.464;18.976;2024-01-30T00:19:38;26.60;;;15.35;;
65665;SDS011;52365;47.464;18.976;2024-01-30T00:19:58;27.37;;;14.87;;
65665;SDS011;52365;47.464;18.976;2024-01-30T00:20:20;27.75;;;15.23;;
65665;SDS011;52365;47.464;18.976;2024-01-30T00:20:36;28.77;;;14.93;;
65665;SDS011;52365;47.464;18.976;2024-01-30T00:20:57;27.08;;;14.52;;
65665;SDS011;52365;47.464;18.976;2024-01-30T00:21:13;25.42;;;14.40;;
65665;SDS011;52365;47.464;18.976;2024-01-30T00:21:34;26.30;;;14.25;;
65665;SDS011;52365;47.464;18.976;2024-01-30T00:21:54;25.00;;;14.25;;
65665;SDS011;52365;47.464;18.976;2024-01-30T00:22:16;25.85;;;14.35;;
65665;SDS011;52365;47.464;18.976;2024-01-30T00:22:36;29.83;;;15.27;;
65665;SDS011;52365;47.464;18.976;2024-01-30T00:22:57;26.80;;;14.48;;
65665;SDS011;52365;47.464;18.976;2024-01-30T00:23:18;26.40;;;14.95;;
65665;SDS011;52365;47.464;18.976;2024-01-30T00:23:39;28.55;;;15.55;;
65665;SDS011;52365;47.464;18.976;2024-01-30T00:24:00;29.55;;;16.37;;
65665;SDS011;52365;47.464;18.976;2024-01-30T00:24:21;28.58;;;16.10;;
65665;SDS011;52365;47.464;18.976;2024-01-30T00:24:42;28.27;;;16.20;;
65665;SDS011;52365;47.464;18.976;2024-01-30T00:25:03;28.33;;;16.27;;
65665;SDS011;52365;47.464;18.976;2024-01-30T00:25:25;28.10;;;15.85;;
65665;SDS011;52365;47.464;18.976;2024-01-30T00:25:46;28.38;;;16.33;;
65665;SDS011;52365;47.464;18.976;2024-01-30T00:26:07;28.20;;;15.70;;
65665;SDS011;52365;47.464;18.976;2024-01-30T00:26:27;26.45;;;15.07;;
65665;SDS011;52365;47.464;18.976;2024-01-30T00:26:48;27.25;;;14.95;;
65665;SDS011;52365;47.464;18.976;2024-01-30T00:27:09;28.30;;;15.52;;
65665;SDS011;52365;47.464;18.976;2024-01-30T00:27:30;29.02;;;15.70;;
65665;SDS011;52365;47.464;18.976;2024-01-30T00:27:51;26.65;;;14.85;;
65665;SDS011;52365;47.464;18.976;2024-01-30T00:28:12;26.17;;;14.70;;
65665;SDS011;52365;47.464;18.976;2024-01-30T00:28:33;27.92;;;15.43;;
65665;SDS011;52365;47.464;18.976;2024-01-30T00:28:49;27.35;;;15.15;;
65665;SDS011;52365;47.464;18.976;2024-01-30T00:29:10;26.52;;;14.50;;
65665;SDS011;52365;47.464;18.976;2024-01-30T00:29:31;25.05;;;14.90;;
65665;SDS011;52365;47.464;18.976;2024-01-30T00:29:54;25.48;;;14.93;;
65665;SDS011;52365;47.464;18.976;2024-01-30T00:30:15;24.15;;;14.35;;
65665;SDS011;52365;47.464;18.976;2024-01-30T00:30:36;25.37;;;14.32;;
65665;SDS011;52365;47.464;18.976;2024-01-30T00:30:57;25.77;;;14.87;;
65665;SDS011;52365;47.464;18.976;2024-01-30T00:31:17;26.85;;;14.73;;
65665;SDS011;52365;47.464;18.976;2024-01-30T00:31:38;28.55;;;14.65;;
65665;SDS011;52365;47.464;18.976;2024-01-30T00:31:54;28.75;;;15.18;;
65665;SDS011;52365;47.464;18.976;2024-01-30T00:32:15;26.33;;;14.50;;
65665;SDS011;52365;47.464;18.976;2024-01-30T00:32:36;26.23;;;14.45;;
65665;SDS011;52365;47.464;18.976;2024-01-30T00:32:53;25.80;;;14.60;;
65665;SDS011;52365;47.464;18.976;2024-01-30T00:33:14;23.60;;;13.90;;
65665;SDS011;52365;47.464;18.976;2024-01-30T00:33:36;25.50;;;14.32;;
65665;SDS011;52365;47.464;18.976;2024-01-30T00:33:57;23.77;;;14.15;;
65665;SDS011;52365;47.464;18.976;2024-01-30T00:34:18;24.63;;;13.93;;
65665;SDS011;52365;47.464;18.976;2024-01-30T00:34:39;24.58;;;14.05;;
65665;SDS011;52365;47.464;18.976;2024-01-30T00:35:00;26.10;;;14.15;;
65665;SDS011;52365;47.464;18.976;2024-01-30T00:35:21;25.20;;;14.00;;
65665;SDS011;52365;47.464;18.976;2024-01-30T00:35:43;24.30;;;14.00;;
65665;SDS011;52365;47.464;18.976;2024-01-30T00:36:04;25.00;;;13.82;;
65665;SDS011;52365;47.464;18.976;2024-01-30T00:36:29;23.80;;;13.68;;
65665;SDS011;52365;47.464;18.976;2024-01-30T00:36:50;24.60;;;14.38;;
65665;SDS011;52365;47.464;18.976;2024-01-30T00:37:11;23.85;;;13.90;;
65665;SDS011;52365;47.464;18.976;2024-01-30T00:37:32;64.65;;;35.78;;
65665;SDS011;52365;47.464;18.976;2024-01-30T00:37:53;115.45;;;62.20;;
65665;SDS011;52365;47.464;18.976;2024-01-30T00:38:14;53.10;;;29.40;;
65665;SDS011;52365;47.464;18.976;2024-01-30T00:38:35;48.50;;;26.87;;
65665;SDS011;52365;47.464;18.976;2024-01-30T00:38:56;45.58;;;25.42;;
65665;SDS011;52365;47.464;18.976;2024-01-30T00:39:17;47.25;;;26.12;;
65665;SDS011;52365;47.464;18.976;2024-01-30T00:39:40;40.88;;;22.50;;
65665;SDS011;52365;47.464;18.976;2024-01-30T00:40:01;37.20;;;20.40;;
65665;SDS011;52365;47.464;18.976;2024-01-30T00:40:22;33.17;;;17.83;;
65665;SDS011;52365;47.464;18.976;2024-01-30T00:40:43;29.75;;;15.93;;
65665;SDS011;52365;47.464;18.976;2024-01-30T00:40:59;30.67;;;16.00;;
65665;SDS011;52365;47.464;18.976;2024-01-30T00:41:20;30.25;;;15.82;;
65665;SDS011;52365;47.464;18.976;2024-01-30T00:41:41;29.23;;;15.82;;
65665;SDS011;52365;47.464;18.976;2024-01-30T00:42:02;24.45;;;14.23;;
65665;SDS011;52365;47.464;18.976;2024-01-30T00:42:22;24.87;;;14.15;;
65665;SDS011;52365;47.464;18.976;2024-01-30T00:42:44;25.92;;;14.35;;
65665;SDS011;52365;47.464;18.976;2024-01-30T00:43:05;26.73;;;14.82;;
65665;SDS011;52365;47.464;18.976;2024-01-30T00:43:26;27.70;;;15.60;;
65665;SDS011;52365;47.464;18.976;2024-01-30T00:43:47;27.50;;;15.10;;
65665;SDS011;52365;47.464;18.976;2024-01-30T00:44:08;26.80;;;15.27;;
65665;SDS011;52365;47.464;18.976;2024-01-30T00:44:29;27.10;;;15.32;;
65665;SDS011;52365;47.464;18.976;2024-01-30T00:44:50;29.05;;;15.82;;
65665;SDS011;52365;47.464;18.976;2024-01-30T00:45:11;26.95;;;15.18;;
65665;SDS011;52365;47.464;18.976;2024-01-30T00:45:34;25.52;;;14.30;;
65665;SDS011;52365;47.464;18.976;2024-01-30T00:45:55;25.52;;;14.63;;
65665;SDS011;52365;47.464;18.976;2024-01-30T00:46:16;25.73;;;14.65;;
65665;SDS011;52365;47.464;18.976;2024-01-30T00:46:37;23.30;;;14.10;;
65665;SDS011;52365;47.464;18.976;2024-01-30T00:46:57;26.90;;;14.80;;
65665;SDS011;52365;47.464;18.976;2024-01-30T00:47:18;27.95;;;14.77;;
65665;SDS011;52365;47.464;18.976;2024-01-30T00:47:39;26.23;;;14.70;;
65665;SDS011;52365;47.464;18.976;2024-01-30T00:48:00;26.37;;;15.10;;
65665;SDS011;52365;47.464;18.976;2024-01-30T00:48:21;26.02;;;15.18;;
65665;SDS011;52365;47.464;18.976;2024-01-30T00:48:42;27.35;;;14.90;;
65665;SDS011;52365;47.464;18.976;2024-01-30T00:49:03;26.33;;;14.85;;
65665;SDS011;52365;47.464;18.976;2024-01-30T00:49:24;26.10;;;14.70;;
65665;SDS011;52365;47.464;18.976;2024-01-30T00:49:45;23.58;;;13.38;;
65665;SDS011;52365;47.464;18.976;2024-01-30T00:50:06;22.98;;;13.27;;
65665;SDS011;52365;47.464;18.976;2024-01-30T00:50:27;21.95;;;12.68;;
65665;SDS011;52365;47.464;18.976;2024-01-30T00:50:48;22.17;;;12.77;;
65665;SDS011;52365;47.464;18.976;2024-01-30T00:51:04;21.95;;;12.55;;
65665;SDS011;52365;47.464;18.976;2024-01-30T00:51:20;21.75;;;12.65;;
65665;SDS011;52365;47.464;18.976;2024-01-30T00:51:41;24.23;;;13.32;;
65665;SDS011;52365;47.464;18.976;2024-01-30T00:52:02;25.83;;;13.88;;
65665;SDS011;52365;47.464;18.976;2024-01-30T00:52:24;24.73;;;13.75;;
65665;SDS011;52365;47.464;18.976;2024-01-30T00:52:45;22.42;;;13.35;;
65665;SDS011;52365;47.464;18.976;2024-01-30T00:53:06;23.20;;;13.45;;
65665;SDS011;52365;47.464;18.976;2024-01-30T00:53:22;25.03;;;13.37;;
65665;SDS011;52365;47.464;18.976;2024-01-30T00:53:43;24.00;;;12.85;;
65665;SDS011;52365;47.464;18.976;2024-01-30T00:54:04;20.95;;;12.50;;
65665;SDS011;52365;47.464;18.976;2024-01-30T00:54:26;21.55;;;13.02;;
65665;SDS011;52365;47.464;18.976;2024-01-30T00:54:47;23.20;;;13.00;;
65665;SDS011;52365;47.464;18.976;2024-01-30T00:55:08;21.10;;;12.55;;
65665;SDS011;52365;47.464;18.976;2024-01-30T00:55:29;21.60;;;13.10;;
65665;SDS011;52365;47.464;18.976;2024-01-30T00:55:50;23.48;;;13.45;;
65665;SDS011;52365;47.464;18.976;2024-01-30T00:56:11;26.20;;;13.18;;
65665;SDS011;52365;47.464;18.976;2024-01-30T00:56:32;26.70;;;13.25;;
65665;SDS011;52365;47.464;18.976;2024-01-30T00:56:53;25.33;;;14.15;;
65665;SDS011;52365;47.464;18.976;2024-01-30T00:57:14;23.62;;;13.70;;
65665;SDS011;52365;47.464;18.976;2024-01-30T00:57:35;25.30;;;13.75;;
65665;SDS011;52365;47.464;18.976;2024-01-30T00:57:56;23.77;;;13.48;;
65665;SDS011;52365;47.464;18.976;2024-01-30T00:58:17;25.35;;;14.05;;
65665;SDS011;52365;47.464;18.976;2024-01-30T00:58:39;23.85;;;13.50;;
65665;SDS011;52365;47.464;18.976;2024-01-30T00:59:00;24.58;;;13.60;;
65665;SDS011;52365;47.464;18.976;2024-01-30T00:59:21;24.35;;;13.52;;
65665;SDS011;52365;47.464;18.976;2024-01-30T00:59:42;24.40;;;13.32;;
65665;SDS011;52365;47.464;18.976;2024-01-30T01:00:03;25.15;;;13.35;;
65665;SDS011;52365;47.464;18.976;2024-01-30T01:00:26;26.27;;;13.95;;
65665;SDS011;52365;47.464;18.976;2024-01-30T01:00:49;24.08;;;13.52;;
65665;SDS011;52365;47.464;18.976;2024-01-30T01:01:10;25.70;;;14.30;;
65665;SDS011;52365;47.464;18.976;2024-01-30T01:01:31;23.92;;;13.52;;
65665;SDS011;52365;47.464;18.976;2024-01-30T01:01:52;23.12;;;13.07;;
65665;SDS011;52365;47.464;18.976;2024-01-30T01:02:13;23.35;;;13.00;;
65665;SDS011;52365;47.464;18.976;2024-01-30T01:02:35;24.00;;;12.85;;
65665;SDS011;52365;47.464;18.976;2024-01-30T01:02:56;23.85;;;13.27;;
65665;SDS011;52365;47.464;18.976;2024-01-30T01:03:12;22.80;;;13.13;;
65665;SDS011;52365;47.464;18.976;2024-01-30T01:03:34;24.02;;;13.00;;
65665;SDS011;52365;47.464;18.976;2024-01-30T01:03:55;22.45;;;12.95;;
65665;SDS011;52365;47.464;18.976;2024-01-30T01:04:16;22.67;;;13.13;;
65665;SDS011;52365;47.464;18.976;2024-01-30T01:04:38;22.83;;;12.82;;
65665;SDS011;52365;47.464;18.976;2024-01-30T01:04:59;21.08;;;12.65;;
65665;SDS011;52365;47.464;18.976;2024-01-30T01:05:15;21.25;;;12.75;;
65665;SDS011;52365;47.464;18.976;2024-01-30T01:05:35;23.65;;;13.05;;
65665;SDS011;52365;47.464;18.976;2024-01-30T01:05:56;23.12;;;13.07;;
65665;SDS011;52365;47.464;18.976;2024-01-30T01:06:17;23.23;;;12.93;;
65665;SDS011;52365;47.464;18.976;2024-01-30T01:06:38;21.80;;;12.52;;
65665;SDS011;52365;47.464;18.976;2024-01-30T01:06:59;20.05;;;11.90;;
65665;SDS011;52365;47.464;18.976;2024-01-30T01:07:20;22.98;;;12.07;;
65665;SDS011;52365;47.464;18.976;2024-01-30T01:07:36;23.92;;;12.95;;
65665;SDS011;52365;47.464;18.976;2024-01-30T01:07:57;22.45;;;12.50;;
65665;SDS011;52365;47.464;18.976;2024-01-30T01:08:18;23.30;;;12.43;;
65665;SDS011;52365;47.464;18.976;2024-01-30T01:08:34;24.20;;;12.82;;
65665;SDS011;52365;47.464;18.976;2024-01-30T01:08:50;24.73;;;13.38;;
65665;SDS011;52365;47.464;18.976;2024-01-30T01:09:11;23.90;;;13.10;;
65665;SDS011;52365;47.464;18.976;2024-01-30T01:09:32;24.58;;;13.40;;
65665;SDS011;52365;47.464;18.976;2024-01-30T01:09:53;24.55;;;13.02;;
65665;SDS011;52365;47.464;18.976;2024-01-30T01:10:14;22.40;;;12.55;;
65665;SDS011;52365;47.464;18.976;2024-01-30T01:10:37;21.40;;;12.63;;
65665;SDS011;52365;47.464;18.976;2024-01-30T01:10:58;21.52;;;12.55;;
65665;SDS011;52365;47.464;18.976;2024-01-30T01:11:19;23.25;;;12.90;;
65665;SDS011;52365;47.464;18.976;2024-01-30T01:11:40;23.98;;;12.60;;
65665;SDS011;52365;47.464;18.976;2024-01-30T01:12:01;23.15;;;12.35;;
65665;SDS011;52365;47.464;18.976;2024-01-30T01:12:23;23.70;;;12.18;;
65665;SDS011;52365;47.464;18.976;2024-01-30T01:12:44;23.30;;;12.57;;
65665;SDS011;52365;47.464;18.976;2024-01-30T01:13:06;20.40;;;12.23;;
65665;SDS011;52365;47.464;18.976;2024-01-30T01:13:27;21.77;;;12.70;;
65665;SDS011;52365;47.464;18.976;2024-01-30T01:13:48;22.15;;;12.68;;
65665;SDS011;52365;47.464;18.976;2024-01-30T01:14:09;21.95;;;12.68;;
65665;SDS011;52365;47.464;18.976;2024-01-30T01:14:30;23.77;;;12.75;;
65665;SDS011;52365;47.464;18.976;2024-01-30T01:14:51;23.23;;;13.07;;
65665;SDS011;52365;47.464;18.976;2024-01-30T01:15:12;24.75;;;13.55;;
65665;SDS011;52365;47.464;18.976;2024-01-30T01:15:33;24.20;;;13.25;;
65665;SDS011;52365;47.464;18.976;2024-01-30T01:15:53;22.48;;;12.70;;
65665;SDS011;52365;47.464;18.976;2024-01-30T01:16:15;23.60;;;13.02;;
65665;SDS011;52365;47.464;18.976;2024-01-30T01:16:36;22.65;;;12.35;;
65665;SDS011;52365;47.464;18.976;2024-01-30T01:16:58;22.35;;;12.88;;
65665;SDS011;52365;47.464;18.976;2024-01-30T01:17:19;23.60;;;12.90;;
65665;SDS011;52365;47.464;18.976;2024-01-30T01:17:40;23.40;;;12.80;;
65665;SDS011;52365;47.464;18.976;2024-01-30T01:17:56;22.77;;;13.02;;
65665;SDS011;52365;47.464;18.976;2024-01-30T01:18:17;21.65;;;12.40;;
65665;SDS011;52365;47.464;18.976;2024-01-30T01:18:38;20.42;;;11.57;;
65665;SDS011;52365;47.464;18.976;2024-01-30T01:18:59;19.20;;;11.40;;
65665;SDS011;52365;47.464;18.976;2024-01-30T01:19:21;22.27;;;12.23;;
65665;SDS011;52365;47.464;18.976;2024-01-30T01:19:42;21.30;;;12.43;;
65665;SDS011;52365;47.464;18.976;2024-01-30T01:20:03;22.87;;;12.18;;
65665;SDS011;52365;47.464;18.976;2024-01-30T01:20:25;20.33;;;12.00;;
65665;SDS011;52365;47.464;18.976;2024-01-30T01:20:46;20.80;;;12.02;;
65665;SDS011;52365;47.464;18.976;2024-01-30T01:21:07;21.50;;;12.70;;
65665;SDS011;52365;47.464;18.976;2024-01-30T01:21:28;20.40;;;12.15;;
65665;SDS011;52365;47.464;18.976;2024-01-30T01:21:49;19.23;;;12.13;;
65665;SDS011;52365;47.464;18.976;2024-01-30T01:22:10;19.95;;;11.95;;
65665;SDS011;52365;47.464;18.976;2024-01-30T01:22:32;20.50;;;11.88;;
65665;SDS011;52365;47.464;18.976;2024-01-30T01:22:53;21.60;;;11.77;;
65665;SDS011;52365;47.464;18.976;2024-01-30T01:23:14;21.75;;;12.10;;
65665;SDS011;52365;47.464;18.976;2024-01-30T01:23:35;19.80;;;11.82;;
65665;SDS011;52365;47.464;18.976;2024-01-30T01:23:56;19.42;;;11.50;;
65665;SDS011;52365;47.464;18.976;2024-01-30T01:24:17;19.70;;;11.85;;
65665;SDS011;52365;47.464;18.976;2024-01-30T01:24:38;21.00;;;12.32;;
65665;SDS011;52365;47.464;18.976;2024-01-30T01:24:59;19.52;;;11.52;;
65665;SDS011;52365;47.464;18.976;2024-01-30T01:25:21;19.95;;;11.38;;
65665;SDS011;52365;47.464;18.976;2024-01-30T01:25:42;21.75;;;11.98;;
65665;SDS011;52365;47.464;18.976;2024-01-30T01:26:03;20.15;;;11.55;;
65665;SDS011;52365;47.464;18.976;2024-01-30T01:26:25;20.10;;;11.48;;
65665;SDS011;52365;47.464;18.976;2024-01-30T01:26:47;21.23;;;12.10;;
65665;SDS011;52365;47.464;18.976;2024-01-30T01:27:08;21.70;;;12.02;;
65665;SDS011;52365;47.464;18.976;2024-01-30T01:27:29;19.17;;;10.93;;
65665;SDS011;52365;47.464;18.976;2024-01-30T01:27:49;20.48;;;11.15;;
65665;SDS011;52365;47.464;18.976;2024-01-30T01:28:13;18.77;;;11.20;;
65665;SDS011;52365;47.464;18.976;2024-01-30T01:28:34;20.10;;;11.50;;
65665;SDS011;52365;47.464;18.976;2024-01-30T01:28:50;18.92;;;11.57;;
65665;SDS011;52365;47.464;18.976;2024-01-30T01:29:11;19.12;;;11.75;;
65665;SDS011;52365;47.464;18.976;2024-01-30T01:29:32;19.87;;;11.60;;
65665;SDS011;52365;47.464;18.976;2024-01-30T01:29:53;20.25;;;11.75;;
65665;SDS011;52365;47.464;18.976;2024-01-30T01:30:14;19.87;;;11.90;;
65665;SDS011;52365;47.464;18.976;2024-01-30T01:30:41;18.40;;;10.90;;
65665;SDS011;52365;47.464;18.976;2024-01-30T01:31:02;22.85;;;13.40;;
65665;SDS011;52365;47.464;18.976;2024-01-30T01:31:25;41.75;;;24.00;;
65665;SDS011;52365;47.464;18.976;2024-01-30T01:31:50;40.50;;;24.48;;
65665;SDS011;52365;47.464;18.976;2024-01-30T01:32:11;27.87;;;16.83;;
65665;SDS011;52365;47.464;18.976;2024-01-30T01:32:32;25.95;;;14.77;;
65665;SDS011;52365;47.464;18.976;2024-01-30T01:32:52;25.75;;;15.00;;
65665;SDS011;52365;47.464;18.976;2024-01-30T01:33:17;26.17;;;15.25;;
65665;SDS011;52365;47.464;18.976;2024-01-30T01:33:38;24.87;;;14.45;;
65665;SDS011;52365;47.464;18.976;2024-01-30T01:33:59;23.48;;;13.40;;
65665;SDS011;52365;47.464;18.976;2024-01-30T01:34:20;23.50;;;13.62;;
65665;SDS011;52365;47.464;18.976;2024-01-30T01:34:41;22.30;;;12.97;;
65665;SDS011;52365;47.464;18.976;2024-01-30T01:35:02;24.17;;;13.07;;
65665;SDS011;52365;47.464;18.976;2024-01-30T01:35:23;24.80;;;12.98;;
65665;SDS011;52365;47.464;18.976;2024-01-30T01:35:48;21.20;;;12.00;;
65665;SDS011;52365;47.464;18.976;2024-01-30T01:36:09;21.12;;;11.68;;
65665;SDS011;52365;47.464;18.976;2024-01-30T01:36:30;20.85;;;11.07;;
65665;SDS011;52365;47.464;18.976;2024-01-30T01:36:51;19.25;;;10.85;;
65665;SDS011;52365;47.464;18.976;2024-01-30T01:37:12;18.17;;;11.20;;
65665;SDS011;52365;47.464;18.976;2024-01-30T01:37:33;17.65;;;10.82;;
65665;SDS011;52365;47.464;18.976;2024-01-30T01:37:54;17.65;;;10.98;;
65665;SDS011;52365;47.464;18.976;2024-01-30T01:38:15;19.52;;;11.73;;
65665;SDS011;52365;47.464;18.976;2024-01-30T01:38:36;20.58;;;11.75;;
65665;SDS011;52365;47.464;18.976;2024-01-30T01:38:57;20.98;;;11.77;;
65665;SDS011;52365;47.464;18.976;2024-01-30T01:39:18;19.20;;;11.38;;
65665;SDS011;52365;47.464;18.976;2024-01-30T01:39:39;19.92;;;11.40;;
65665;SDS011;52365;47.464;18.976;2024-01-30T01:39:55;21.67;;;11.68;;
65665;SDS011;52365;47.464;18.976;2024-01-30T01:40:16;21.02;;;10.77;;
65665;SDS011;52365;47.464;18.976;2024-01-30T01:40:37;18.92;;;10.40;;
65665;SDS011;52365;47.464;18.976;2024-01-30T01:41:00;19.05;;;10.40;;
65665;SDS011;52365;47.464;18.976;2024-01-30T01:41:21;17.60;;;10.43;;
65665;SDS011;52365;47.464;18.976;2024-01-30T01:41:42;18.95;;;10.50;;
65665;SDS011;52365;47.464;18.976;2024-01-30T01:42:03;18.55;;;10.13;;
65665;SDS011;52365;47.464;18.976;2024-01-30T01:42:24;19.58;;;10.23;;
65665;SDS011;52365;47.464;18.976;2024-01-30T01:42:45;18.90;;;10.38;;
65665;SDS011;52365;47.464;18.976;2024-01-30T01:43:06;19.25;;;10.50;;
65665;SDS011;52365;47.464;18.976;2024-01-30T01:43:27;20.85;;;10.60;;
65665;SDS011;52365;47.464;18.976;2024-01-30T01:43:48;18.45;;;10.32;;
65665;SDS011;52365;47.464;18.976;2024-01-30T01:44:09;19.25;;;10.68;;
65665;SDS011;52365;47.464;18.976;2024-01-30T01:44:25;19.62;;;11.02;;
65665;SDS011;52365;47.464;18.976;2024-01-30T01:44:47;20.55;;;11.25;;
65665;SDS011;52365;47.464;18.976;2024-01-30T01:45:11;20.35;;;11.30;;
65665;SDS011;52365;47.464;18.976;2024-01-30T01:45:34;19.65;;;11.70;;
65665;SDS011;52365;47.464;18.976;2024-01-30T01:45:50;20.20;;;11.98;;
65665;SDS011;52365;47.464;18.976;2024-01-30T01:46:11;20.08;;;11.23;;
65665;SDS011;52365;47.464;18.976;2024-01-30T01:46:32;18.12;;;10.35;;
65665;SDS011;52365;47.464;18.976;2024-01-30T01:46:54;20.05;;;11.30;;
65665;SDS011;52365;47.464;18.976;2024-01-30T01:47:10;19.95;;;11.23;;
65665;SDS011;52365;47.464;18.976;2024-01-30T01:47:31;18.58;;;10.63;;
65665;SDS011;52365;47.464;18.976;2024-01-30T01:47:52;20.58;;;11.05;;
65665;SDS011;52365;47.464;18.976;2024-01-30T01:48:14;17.50;;;11.02;;
65665;SDS011;52365;47.464;18.976;2024-01-30T01:48:36;18.98;;;11.07;;
65665;SDS011;52365;47.464;18.976;2024-01-30T01:48:57;21.83;;;11.55;;
65665;SDS011;52365;47.464;18.976;2024-01-30T01:49:19;22.40;;;11.77;;
65665;SDS011;52365;47.464;18.976;2024-01-30T01:49:40;20.55;;;11.85;;
65665;SDS011;52365;47.464;18.976;2024-01-30T01:50:02;21.15;;;11.23;;
65665;SDS011;52365;47.464;18.976;2024-01-30T01:50:23;19.62;;;10.80;;
65665;SDS011;52365;47.464;18.976;2024-01-30T01:50:45;18.50;;;10.60;;
65665;SDS011;52365;47.464;18.976;2024-01-30T01:51:06;18.40;;;10.63;;
65665;SDS011;52365;47.464;18.976;2024-01-30T01:51:27;18.80;;;11.02;;
65665;SDS011;52365;47.464;18.976;2024-01-30T01:51:50;20.33;;;11.25;;
65665;SDS011;52365;47.464;18.976;2024-01-30T01:52:09;20.40;;;11.23;;
65665;SDS011;52365;47.464;18.976;2024-01-30T01:52:30;18.77;;;10.90;;
65665;SDS011;52365;47.464;18.976;2024-01-30T01:52:52;18.45;;;10.75;;
65665;SDS011;52365;47.464;18.976;2024-01-30T01:53:13;18.67;;;10.77;;
65665;SDS011;52365;47.464;18.976;2024-01-30T01:53:35;18.00;;;10.68;;
65665;SDS011;52365;47.464;18.976;2024-01-30T01:53:56;18.95;;;10.43;;
65665;SDS011;52365;47.464;18.976;2024-01-30T01:54:21;19.50;;;10.45;;
65665;SDS011;52365;47.464;18.976;2024-01-30T01:54:42;18.10;;;10.30;;
65665;SDS011;52365;47.464;18.976;2024-01-30T01:55:03;19.23;;;10.57;;
65665;SDS011;52365;47.464;18.976;2024-01-30T01:55:24;18.15;;;10.57;;
65665;SDS011;52365;47.464;18.976;2024-01-30T01:55:48;17.40;;;10.15;;
65665;SDS011;52365;47.464;18.976;2024-01-30T01:56:09;16.35;;;9.88;;
65665;SDS011;52365;47.464;18.976;2024-01-30T01:56:30;16.98;;;9.80;;
65665;SDS011;52365;47.464;18.976;2024-01-30T01:56:52;19.17;;;10.23;;
65665;SDS011;52365;47.464;18.976;2024-01-30T01:57:13;18.67;;;10.25;;
65665;SDS011;52365;47.464;18.976;2024-01-30T01:57:34;19.40;;;10.25;;
65665;SDS011;52365;47.464;18.976;2024-01-30T01:57:55;19.80;;;10.98;;
65665;SDS011;52365;47.464;18.976;2024-01-30T01:58:17;19.35;;;10.93;;
65665;SDS011;52365;47.464;18.976;2024-01-30T01:58:40;18.30;;;10.10;;
65665;SDS011;52365;47.464;18.976;2024-01-30T01:59:06;17.37;;;10.02;;
65665;SDS011;52365;47.464;18.976;2024-01-30T01:59:28;19.60;;;10.43;;
65665;SDS011;52365;47.464;18.976;2024-01-30T01:59:49;17.58;;;9.80;;
65665;SDS011;52365;47.464;18.976;2024-01-30T02:00:11;17.73;;;10.00;;
65665;SDS011;52365;47.464;18.976;2024-01-30T02:00:33;19.40;;;10.77;;